x

9441102 - Westport, Wa (wptw1) Weather Station

5:36 - Fri 22nd May 2015 All times are PDT. -7 hours from GMT.

  • Wind
    13mph, 14mph gusts
  • Sea Temp 52°f
  • Ar Temp 52°f
  • Sea Pressure 1015mb
  • 9441102 - Westport, Wa
  • 9441102 - Westport, Wa

More Historic Weather Station data

Upgrade to MSW Pro to gain access to the past 30 days of data for over 8000 Wavebouys and Weather Stations around the globe.

Join Pro

Comparision Forecast

View Surf forecast
   
Sex 05/22 5:36 13 14 mph 1015mb 52f 52f
5:30 10 11 mph 1015mb 52f 51f
5:24 10 11 mph 1015.1mb 52f 51f
5:18 10 13 mph 1015.1mb 52f 52f
5:12 11 14 mph 1015mb 52f 52f
5:06 11 16 mph 1015.1mb 52f 52f
5:00 11 14 mph 1015.1mb 52f 52f
4:36 13 14 mph 1014.9mb 52f 52f
4:30 11 14 mph 1015mb 52f 52f
4:24 11 14 mph 1015mb 52f 52f
4:18 11 13 mph 1015mb 52f 52f
4:12 10 13 mph 1015mb 52f 52f
4:06 11 14 mph 1015mb 52f 52f
4:00 10 13 mph 1015mb 52f 52f
3:36 13 15 mph 1014.9mb 52f 52f
3:30 10 13 mph 1014.8mb 52f 52f
3:24 11 13 mph 1014.8mb 52f 52f
3:18 11 15 mph 1014.7mb 52f 52f
3:12 11 14 mph 1014.7mb 53f 52f
3:06 10 11 mph 1014.7mb 53f 52f
3:00 10 11 mph 1014.7mb 53f 52f
2:36 11 13 mph 1014.7mb 53f 52f
2:30 10 13 mph 1014.7mb 53f 52f
2:24 10 13 mph 1014.7mb 53f 52f
2:18 10 11 mph 1014.7mb 53f 52f
2:12 11 14 mph 1014.8mb 53f 52f
2:06 10 13 mph 1014.9mb 53f 52f
2:00 8 10 mph 1014.9mb 53f 52f
1:36 13 14 mph 1014.6mb 53f 52f
1:30 10 13 mph 1014.6mb 53f 52f
1:24 9 10 mph 1014.7mb 53f 52f
1:18 10 13 mph 1014.6mb 53f 52f
1:12 10 11 mph 1014.6mb 53f 52f
1:06 10 11 mph 1014.7mb 53f 52f
1:00 11 14 mph 1014.6mb 53f 52f
12:36 8 10 mph 1014.6mb 53f 52f
12:30 9 11 mph 1014.7mb 53f 52f
12:24 10 11 mph 1014.7mb 53f 52f
12:18 8 10 mph 1014.7mb 53f 52f
12:12 10 15 mph 1014.6mb 53f 52f
12:06 11 15 mph 1014.4mb 53f 52f
12:00 10 11 mph 1014.5mb 53f 52f
Qui 05/21 11:36 9 10 mph 1014.6mb 53f 52f
11:30 5 8 mph 1014.5mb 53f 52f
11:24 8 9 mph 1014.4mb 53f 52f
11:18 7 10 mph 1014.4mb 53f 52f
11:12 7 10 mph 1014.4mb 53f 52f
11:06 8 10 mph 1014.3mb 53f 52f
11:00 9 11 mph 1014.2mb 53f 52f
10:36 10 11 mph 1014.2mb 53f 52f
10:30 8 14 mph 1014.1mb 53f 52f
10:24 11 14 mph 1014.1mb 53f 52f
10:18 9 11 mph 1014mb 53f 52f
10:12 11 14 mph 1014mb 53f 52f
10:06 11 14 mph 1014mb 53f 52f
10:00 9 10 mph 1014.1mb 53f 52f
9:36 10 11 mph 1013.9mb 53f 53f
9:30 7 8 mph 1013.9mb 53f 53f
9:24 8 9 mph 1013.8mb 53f 52f
9:18 8 13 mph 1013.8mb 53f 52f
9:12 9 11 mph 1013.8mb 53f 52f
9:06 9 11 mph 1013.6mb 53f 52f
9:00 9 11 mph 1013.6mb 53f 52f
8:36 13 14 mph 1013.3mb 53f 52f
8:30 10 13 mph 1013.3mb 53f 52f
8:24 10 13 mph 1013.3mb 53f 52f
8:18 11 15 mph 1013.4mb 53f 53f
8:12 13 14 mph 1013.4mb 53f 53f
8:06 13 15 mph 1013.4mb 53f 53f
8:00 8 10 mph 1013.3mb 53f 53f
7:36 8 9 mph 1013mb 53f 53f
7:30 7 9 mph 1013.1mb 53f 53f
7:24 9 11 mph 1013.1mb 53f 53f
7:18 10 13 mph 1013mb 53f 53f
7:12 9 11 mph 1012.9mb 53f 53f
7:06 10 15 mph 1012.9mb 53f 53f
7:00 11 14 mph 1012.8mb 53f 53f
6:36 8 11 mph 1012.8mb 52f 53f
6:30 11 14 mph 1012.7mb 52f 53f
6:24 10 13 mph 1012.7mb 52f 53f
6:18 14 15 mph 1012.7mb 52f 53f
6:12 10 13 mph 1012.7mb 52f 53f
6:06 9 10 mph 1012.8mb 52f 53f
6:00 10 11 mph 1012.8mb 52f 53f
5:24  -  mph 1013.1mb 52f 53f
5:12  -  mph 1013mb 52f 54f
5:00  -  mph 1012.9mb 52f 54f
4:36 9 11 mph 1013mb 52f 54f
4:30 10 11 mph 1013.1mb 52f 54f
4:24 10 11 mph - - -
4:18 8 9 mph 1013.2mb 52f 53f
4:12 8 10 mph 1013.2mb 52f 53f
4:06 8 9 mph 1013.2mb 52f 53f
4:00 7 8 mph 1013.3mb 52f 53f
3:36 9 10 mph 1013.3mb 53f 54f
3:30 9 10 mph 1013.3mb 53f 54f
3:24 10 11 mph 1013.2mb 53f 54f
3:18 9 10 mph 1013.2mb 54f 54f
3:12 8 9 mph 1013.3mb 54f 54f
3:06 8 10 mph 1013.3mb 54f 54f
3:00 8 9 mph 1013.4mb 54f 54f
2:36 8 10 mph 1013.5mb 54f 53f
2:30 9 10 mph 1013.5mb 54f 54f
2:24 8 9 mph 1013.5mb 54f 54f
2:18 8 9 mph 1013.6mb 54f 53f
2:12 7 9 mph 1013.6mb 54f 53f
2:06 8 9 mph 1013.6mb 54f 53f
2:00 7
mph
1013.5mb 54f 53f
1:36 6 7 mph 1013.5mb 54f 53f
1:30 5 6 mph 1013.5mb 54f 53f
1:24 6 7 mph 1013.4mb 54f 53f
1:18 5 6 mph 1013.5mb 54f 53f
1:12 6 7 mph 1013.5mb 54f 53f
1:06 6 7 mph 1013.6mb 54f 53f
1:00 6
mph
1013.6mb 54f 53f
12:36 6 7 mph 1013.7mb 54f 53f
12:30 5 6 mph 1013.7mb 54f 52f
12:24 6
mph
1013.6mb 54f 52f
12:18 5 7 mph 1013.7mb 54f 52f
12:12 6 7 mph 1013.7mb 54f 52f
12:06 6 7 mph 1013.6mb 54f 52f
12:00 5 6 mph 1013.6mb 54f 52f
11:36 6 7 mph 1013.5mb 54f 51f
11:30 5 8 mph 1013.6mb 54f 51f
11:24 6 8 mph 1013.5mb 54f 51f
11:18 6
mph
1013.6mb 54f 51f
11:12 5 7 mph 1013.6mb 54f 51f
11:06 6 8 mph 1013.5mb 54f 51f
11:00 8 9 mph 1013.5mb 54f 51f
10:36 9 10 mph 1013.5mb 55f 51f
10:30 7 10 mph 1013.5mb 55f 51f
10:24 6 7 mph 1013.5mb 55f 51f
10:18 7 9 mph 1013.5mb 54f 51f
10:12 8 9 mph 1013.5mb 54f 51f
10:06 9 11 mph 1013.4mb 54f 51f
10:00 7 9 mph 1013.5mb 54f 51f
9:36 8 10 mph 1013.5mb 54f 50f
9:30 9 10 mph 1013.5mb 54f 51f
9:24 7 9 mph 1013.5mb 54f 51f
9:18 8 10 mph 1013.4mb 54f 51f
9:12 8 9 mph 1013.5mb 54f 50f
9:06 8 10 mph 1013.4mb 54f 50f
9:00 7 10 mph 1013.4mb 54f 50f
8:36 9 11 mph 1013.3mb 54f 50f
8:30 8 11 mph 1013.2mb 54f 50f
8:24 8 10 mph 1013.2mb 54f 50f
8:18 8 11 mph 1013.2mb 54f 50f
8:12 8 11 mph 1013.2mb 54f 50f
8:06 9 11 mph 1013.1mb 53f 50f
8:00 6 8 mph 1013.1mb 53f 50f
7:36 8 11 mph 1013mb 53f 50f
7:30 8 11 mph 1013.1mb 53f 50f
7:24 8 11 mph 1013mb 53f 50f
7:18 10 13 mph 1012.9mb 53f 50f
7:12 8 10 mph 1012.9mb 53f 49f
7:06 9 14 mph 1012.9mb 53f 50f
7:00 10 13 mph 1012.8mb 53f 50f
6:36 11 14 mph 1012.7mb 53f 50f
6:30 10 13 mph 1012.8mb 53f 50f
6:24 9 11 mph 1012.8mb 53f 50f
6:18 8 10 mph 1012.8mb 53f 50f
6:12 10 13 mph 1012.8mb 53f 50f
6:06 10 13 mph 1012.7mb 53f 50f
6:00 10 13 mph 1012.6mb 53f 50f
5:54 8 10 mph 1012.6mb 53f 50f
5:48 10 13 mph 1012.6mb 53f 50f
5:36 8 11 mph 1012.7mb 53f 50f
5:30 10 11 mph 1012.7mb 53f 50f
5:24 10 13 mph 1012.7mb 52f 50f
5:18 9 10 mph 1012.8mb 52f 50f
5:12 9 10 mph 1012.8mb 52f 50f
5:06 9 11 mph 1012.8mb 52f 50f
5:00 10 13 mph 1012.8mb 52f 50f
4:54 11 14 mph 1012.8mb 53f 50f
4:48 10 13 mph 1012.9mb 53f 50f
4:36 9 13 mph 1012.8mb 53f 50f
4:30 11 14 mph 1012.8mb 52f 50f
4:24 13 16 mph 1012.8mb 52f 50f
4:18 13 16 mph 1012.9mb 52f 50f
4:12 13 15 mph 1012.9mb 52f 50f
4:06 15 17 mph 1012.9mb 52f 50f
4:00 14 15 mph 1013mb 52f 50f
3:54 11 14 mph 1013mb 52f 50f
3:48 10 13 mph 1013mb 52f 50f
3:36 10 13 mph 1012.9mb 52f 50f
3:30 8 11 mph 1012.9mb 52f 50f
3:24 10 15 mph 1012.9mb 52f 50f
3:18 11 15 mph 1012.9mb 52f 50f
3:12 13 15 mph 1012.8mb 52f 50f
3:06 13 15 mph 1012.8mb 52f 50f
3:00 15 17 mph 1012.8mb 52f 50f
2:54 15 17 mph 1012.8mb 52f 50f
2:48 11 14 mph 1012.8mb 52f 50f
2:36 9 11 mph 1012.9mb 52f 50f
2:30 11 15 mph 1013mb 52f 50f
2:24 14 15 mph 1013mb 53f 50f
2:18 13 15 mph 1013.1mb 53f 50f
2:12 15 17 mph 1013.1mb 53f 51f
2:06 13 14 mph 1013.1mb 53f 50f
2:00 11 15 mph 1013.1mb 53f 51f
1:54 14 16 mph 1013.2mb 53f 51f
1:48 13 14 mph 1013.2mb 53f 50f
1:36 13 15 mph 1013.3mb 53f 51f
1:30 14 15 mph 1013.2mb 53f 50f
1:24 13 15 mph 1013.2mb 53f 51f
1:18 14 15 mph 1013.3mb 54f 51f
1:12 10 13 mph - - -
1:06 10 15 mph - - -
1:00 9 10 mph - - -
12:54 10 14 mph 1013.4mb 54f 51f
12:48 14 15 mph 1013.3mb 54f 51f
12:36 9 10 mph 1013.3mb 54f 51f
12:30 8 11 mph 1013.2mb 54f 51f
12:24 13 14 mph 1013.2mb 54f 51f
12:18 11 14 mph 1013.3mb 54f 51f
12:12 11 13 mph 1013.3mb 54f 51f
12:06 13 15 mph 1013.3mb 54f 51f
12:00 10 13 mph 1013.5mb 54f 51f
Qua 05/20 11:54 13 14 mph 1013.5mb 54f 51f
11:48 9 14 mph 1013.5mb 54f 51f
11:24  -  mph 1013.6mb 54f 51f
10:54  -  mph 1013.5mb 54f 51f
10:48  -  mph 1013.5mb 54f 51f
10:36 13 15 mph 1013.6mb 54f 51f
10:30 13 15 mph 1013.6mb 54f 51f
10:24 11 15 mph 1013.5mb 54f 51f
10:18 11 14 mph 1013.5mb 54f 51f
10:12 11 14 mph 1013.5mb 54f 51f
10:06 11 14 mph 1013.4mb 54f 51f
10:00 13 15 mph 1013.4mb 54f 51f
9:54 11 15 mph 1013.4mb 54f 51f
9:48 13 16 mph 1013.5mb 54f 51f
9:36 14 16 mph 1013.4mb 54f 51f
9:30 10 15 mph 1013.5mb 54f 51f
9:24 11 15 mph 1013.6mb 54f 51f
9:18 13 15 mph 1013.5mb 54f 52f
9:12 14 16 mph 1013.4mb 54f 52f
9:06 11 15 mph - - -
9:00 13 16 mph 1013.2mb 54f 52f
8:54 15 17 mph 1013.2mb 54f 52f
8:48 15 17 mph 1013.2mb 54f 52f
8:36 15 17 mph 1013.2mb 54f 52f
8:30 14 16 mph 1013.1mb 54f 52f
8:24 13 15 mph 1013.3mb 54f 52f
8:18 11 15 mph 1013.2mb 54f 52f
8:12 13 15 mph 1013.2mb 54f 52f
8:06 14 16 mph 1013.1mb 54f 52f
8:00 14 17 mph 1013mb 54f 52f
7:54 13 17 mph 1013.1mb 54f 52f
7:48 11 14 mph 1013.1mb 54f 52f
7:36 13 15 mph 1013.2mb 54f 52f
7:30 13 14 mph 1013.2mb 54f 52f
7:24 11 15 mph 1013.3mb 54f 52f
7:18 13 16 mph 1013.3mb 54f 52f
7:12 13 16 mph 1013.3mb 54f 52f
7:06 15 17 mph 1013.3mb 53f 53f
7:00 15 16 mph 1013.3mb 53f 53f
6:54 15 18 mph - - -
6:48 15 17 mph 1013.3mb 53f 53f
6:36 14 16 mph 1013.3mb 53f 53f
6:30 13 16 mph 1013.3mb 53f 53f
6:24 13 17 mph 1013.3mb 53f 53f
6:18 14 16 mph - - -
6:12 14 16 mph - - -
6:06 13 17 mph 1013.4mb 53f 53f
6:00 15 17 mph 1013.6mb 53f 53f
5:54 14 17 mph 1013.6mb 53f 53f
5:48 14 16 mph 1013.6mb 53f 53f
5:36 15 17 mph 1013.7mb 53f 53f
5:30 15 17 mph 1013.6mb 53f 53f
5:24 16 18 mph 1013.8mb 53f 53f
5:18 15 18 mph 1013.8mb 53f 53f
5:12 17 18 mph 1013.9mb 53f 53f
5:06 14 17 mph 1014mb 53f 53f
5:00 15 18 mph 1014.1mb 53f 53f
4:54 16 18 mph - - -
4:48 15 18 mph 1014.2mb 52f 53f
4:36 13 17 mph 1014.2mb 52f 54f
4:30 15 16 mph 1014.3mb 52f 54f
4:24 13 16 mph 1014.3mb 52f 54f
4:18 15 17 mph 1014.4mb 52f 54f
4:12 15 17 mph 1014.5mb 52f 54f
4:06 15 17 mph 1014.5mb 52f 54f
4:00 14 17 mph 1014.6mb 52f 54f
3:54 14 16 mph 1014.7mb 52f 54f
3:48 15 17 mph 1014.8mb 52f 54f
3:36 14 15 mph 1014.9mb 53f 54f
3:30 14 17 mph 1015mb 53f 54f
3:24 14 15 mph 1015mb 53f 54f
3:18 14 15 mph 1015.1mb 53f 54f
3:12 14 15 mph 1015.1mb 53f 54f
3:06 14 15 mph 1015.2mb 53f 54f
3:00 14 15 mph 1015.2mb 53f 54f
2:54 13 15 mph 1015.2mb 53f 55f
2:48 14 16 mph 1015.2mb 53f 54f
2:36 14 16 mph 1015.3mb 54f 54f
2:30 14 16 mph 1015.4mb 54f 54f
2:24 15 16 mph 1015.4mb 54f 54f
2:18 14 15 mph 1015.4mb 54f 54f
2:12 14 15 mph 1015.5mb 54f 54f
2:06 14 16 mph 1015.6mb 54f 54f
2:00 13 15 mph 1015.6mb 54f 54f
1:54 14 16 mph 1015.6mb 54f 54f
1:48 13 15 mph 1015.6mb 54f 54f
1:36 13 14 mph 1015.7mb 54f 54f
1:30 13 15 mph 1015.8mb 54f 54f
1:24 14 15 mph 1015.8mb 54f 54f
1:18 13 14 mph 1015.9mb 54f 54f
1:12 11 14 mph 1015.9mb 54f 54f
1:06 13 15 mph 1015.9mb 54f 53f
1:00 14 15 mph 1016mb 54f 53f
12:54 14 15 mph 1016mb 54f 53f
12:48 15 16 mph - - -
12:36 14 15 mph 1016.1mb 54f 53f
12:30 13 14 mph 1016.2mb 54f 53f
12:24 14 15 mph 1016.3mb 54f 53f
12:18 13 15 mph 1016.3mb 54f 53f
12:12 13 14 mph 1016.4mb 53f 53f
12:06 14 16 mph 1016.4mb 54f 53f
12:00 13 15 mph 1016.5mb 54f 52f
11:54 14 15 mph 1016.5mb 54f 52f
11:48 15 16 mph - - -
11:36 14 16 mph 1016.5mb 54f 52f
11:30 14 16 mph 1016.5mb 54f 52f
11:24 14 16 mph 1016.5mb 54f 52f
11:18 14 16 mph 1016.6mb 54f 52f
11:12 15 16 mph 1016.6mb 54f 52f
11:06 14 16 mph 1016.7mb 54f 52f
11:00 13 15 mph 1016.7mb 54f 52f
10:54 15 16 mph 1016.7mb 54f 52f
10:48 14 16 mph - - -
10:36 13 16 mph 1016.7mb 54f 51f
10:30 13 16 mph 1016.7mb 54f 51f
10:24 13 15 mph 1016.8mb 54f 51f
10:18 11 15 mph 1016.8mb 54f 51f
10:12 9 13 mph 1016.8mb 54f 51f
10:06 11 14 mph 1016.8mb 54f 51f
10:00 13 15 mph 1016.9mb 54f 51f
9:54 11 16 mph 1016.9mb 54f 51f
9:48 13 15 mph 1016.9mb 54f 51f
9:36 11 14 mph 1016.9mb 54f 51f
9:30 11 14 mph 1017mb 54f 51f
9:24 14 16 mph 1017mb 54f 51f
9:18 9 11 mph 1017mb 54f 51f
9:12 8 14 mph 1017mb 54f 51f
9:06 13 15 mph 1017mb 54f 51f
9:00 11 14 mph 1017mb 54f 51f
8:54 11 13 mph 1017mb 54f 51f
8:48 13 15 mph 1017mb 53f 51f
8:36 13 15 mph 1017mb 53f 50f
8:30 10 15 mph 1017mb 53f 50f
8:24 13 16 mph 1017mb 53f 50f
8:18 9 11 mph 1017mb 53f 50f
8:12 10 14 mph 1017.1mb 53f 50f
8:06 10 14 mph 1017mb 54f 50f
8:00 9 14 mph 1017.1mb 54f 50f
7:54 13 14 mph 1017.1mb 54f 50f
7:48 11 14 mph 1017.1mb 54f 50f
7:30  -  mph 1017.1mb 54f 51f
7:24  -  mph 1017.1mb 53f 50f
7:18  -  mph 1017.1mb 53f 51f
7:12  -  mph 1017.1mb 53f 51f
7:06  -  mph 1017.1mb 53f 51f
7:00  -  mph 1017.1mb 53f 51f
6:54  -  mph 1017.1mb 53f 51f
6:48  -  mph 1017.1mb 53f 50f
6:36 11 15 mph 1017.1mb 53f 50f
6:30 9 14 mph 1017.1mb 53f 50f
6:24 11 15 mph 1017.1mb 53f 51f
6:18 11 15 mph 1017.1mb 53f 51f
6:12 13 15 mph 1017.1mb 53f 51f
6:06 13 14 mph 1017.2mb 53f 51f
6:00 10 15 mph 1017.1mb 53f 51f
5:54 13 15 mph 1017.1mb 53f 51f
5:48 11 13 mph - - -
5:36 10 11 mph 1017.2mb 53f 51f
5:30 10 13 mph 1017.2mb 53f 51f
5:24 10 13 mph 1017.3mb 53f 51f
5:18 10 13 mph 1017.3mb 53f 51f
5:12 10 13 mph - - -
5:06 8 11 mph 1017.4mb 53f 51f
5:00 9 13 mph 1017.4mb 53f 51f
4:54 9 11 mph 1017.4mb 53f 51f
4:48 10 15 mph 1017.5mb 53f 51f
4:30  -  mph 1017.6mb 53f 51f
4:24  -  mph 1017.5mb 53f 51f
4:18  -  mph 1017.6mb 53f 51f
4:12  -  mph 1017.6mb 53f 51f
4:06  -  mph 1017.7mb 53f 51f
4:00  -  mph 1017.6mb 53f 51f
3:54  -  mph 1017.7mb 53f 51f
3:48  -  mph 1017.7mb 53f 51f
3:36 9 13 mph 1017.8mb 52f 51f
3:30 11 14 mph 1017.8mb 52f 51f
3:24 13 15 mph 1017.8mb 52f 51f
3:18 13 14 mph 1017.8mb 52f 51f
3:12 11 14 mph 1017.9mb 52f 51f
3:06 9 14 mph 1017.9mb 52f 51f
3:00 11 13 mph 1017.9mb 52f 51f
2:54 10 14 mph 1017.9mb 52f 51f
2:48 13 14 mph 1018mb 52f 51f
2:36 11 14 mph 1018mb 52f 51f
2:30 10 14 mph 1018.1mb 52f 51f
2:24 13 15 mph 1018.1mb 52f 51f
2:18 10 13 mph 1018.1mb 52f 51f
2:12 13 15 mph 1018mb 52f 51f
2:06 11 14 mph 1018mb 52f 52f
2:00 10 14 mph 1018.1mb 52f 52f
1:54 11 14 mph 1018.2mb 52f 52f
1:48 8 10 mph 1018.2mb 52f 51f
1:36 13 14 mph 1018.3mb 53f 52f
1:30 11 13 mph 1018.4mb 53f 52f
1:24 9 10 mph 1018.4mb 53f 52f
1:18 8 10 mph 1018.4mb 53f 52f
1:12 10 13 mph 1018.4mb 53f 51f
1:06 10 14 mph 1018.5mb 53f 52f
1:00 13 14 mph 1018.5mb 53f 52f
12:54 10 13 mph 1018.5mb 53f 52f
12:48 9 11 mph 1018.5mb 53f 52f
12:36 10 13 mph 1018.6mb 54f 52f
12:30 10 13 mph 1018.5mb 53f 52f
12:24 9 11 mph 1018.5mb 53f 52f
12:18 10 11 mph 1018.5mb 53f 52f
12:12 10 15 mph 1018.6mb 53f 52f
12:06 11 14 mph 1018.7mb 53f 52f
12:00 10 13 mph 1018.8mb 53f 52f
Ter 05/19 11:54 8 9 mph 1018.8mb 53f 52f
11:48 8 14 mph - - -
11:36 11 13 mph 1018.7mb - 52f
11:30 9 10 mph - - -
11:24 9 11 mph 1018.7mb - 52f
11:18 9 11 mph 1018.8mb - 52f
11:12 9 13 mph - - -
11:06 10 11 mph - - -
11:00 10 14 mph - - -
10:54 11 14 mph 1019mb - 52f
10:48 10 13 mph 1019.1mb - 52f
10:36 13 15 mph 1019.1mb 53f 52f
10:30 10 13 mph 1019.2mb 53f 52f
10:24 10 14 mph 1019.2mb 53f 52f
10:18 11 14 mph 1019.1mb 53f 52f
10:12 10 13 mph 1019.1mb 53f 52f
10:06 9 11 mph 1019.1mb 53f 53f
10:00 8 10 mph 1019.1mb 53f 52f
9:54 10 11 mph 1019.1mb 53f 53f
9:48 8 11 mph 1019.1mb 53f 53f
9:36 7 9 mph 1019.1mb 53f 53f
9:30 8 9 mph 1019mb 53f 53f
9:24 7 13 mph 1019.1mb 54f 53f
9:18 9 14 mph 1019mb 54f 53f
9:12 11 14 mph 1019mb 54f 53f
9:06 10 13 mph - - -
9:00 11 15 mph - - -
8:54 11 14 mph 1018.9mb 54f 53f
8:48 9 13 mph 1018.8mb 54f 53f
8:36 9 13 mph 1018.7mb 54f 53f
8:30 9 11 mph 1018.8mb 54f 53f
8:24 10 14 mph 1018.8mb 54f 53f
8:18 13 15 mph 1018.8mb 54f 53f
8:12 13 15 mph 1018.8mb 54f 53f
8:06 14 15 mph 1018.8mb 54f 53f
8:00 11 15 mph 1018.7mb 54f 53f
7:54 13 15 mph 1018.7mb 54f 53f
7:48 13 15 mph 1018.8mb 53f 53f
7:36 11 14 mph 1018.8mb 54f 53f
7:30 13 16 mph 1018.8mb 54f 53f
7:24 13 15 mph 1018.8mb 53f 53f
7:18 13 15 mph 1018.8mb 53f 53f
7:12 13 15 mph 1018.9mb 53f 53f
7:06 11 14 mph 1018.8mb 53f 53f
7:00 13 14 mph 1018.8mb 53f 53f
6:54 11 15 mph - - -
6:48 9 10 mph 1019mb 53f 53f
6:36 7 10 mph 1019mb 53f 53f
6:30 9 10 mph 1018.9mb 53f 53f
6:24 9 10 mph 1019mb 53f 53f
6:18 7 8 mph 1019mb 53f 53f
6:12 7 9 mph 1019.1mb 53f 53f
6:06 7 8 mph 1019.1mb 53f 53f
6:00 6 7 mph 1019.1mb 53f 53f
5:54 7 9 mph 1019.2mb 53f 53f
5:48 7 9 mph 1019.3mb 53f 53f
5:36 7 9 mph 1019.2mb 53f 54f
5:30 7 8 mph 1019.3mb 53f 53f
5:24 7 8 mph 1019.3mb 53f 53f
5:18 6 7 mph 1019.3mb 53f 53f
5:12 7 8 mph 1019.5mb 53f 53f
5:06 7 9 mph 1019.5mb 53f 53f
5:00 8 10 mph 1019.5mb 53f 53f
4:54 9 10 mph 1019.6mb 53f 53f
4:48 9 10 mph 1019.6mb 53f 53f
4:36 9 10 mph 1019.6mb 53f 54f
4:30 9 10 mph 1019.7mb 53f 53f
4:24 8 10 mph 1019.8mb 53f 53f
4:18 9 10 mph 1019.8mb 53f 53f
4:12 9 10 mph 1019.8mb 53f 54f
4:06 9 10 mph 1019.9mb 52f 54f
4:00 10 13 mph 1019.9mb 52f 54f
3:54 11
mph
1020mb 52f 54f
3:48 10 11 mph 1020mb 52f 53f
3:36 10 11 mph 1020.2mb 52f 53f
3:30 10 11 mph 1020.3mb 52f 53f
3:24 10
mph
1020.3mb 52f 53f
3:18 10
mph
1020.4mb 52f 53f
3:12 10
mph
1020.4mb 52f 53f
3:06 9 10 mph 1020.4mb 52f 53f
3:00 9
mph
1020.4mb 52f 53f
2:54 8 9 mph 1020.5mb 52f 53f
2:48 8
mph
1020.6mb 52f 53f
2:36 7
mph
1020.7mb 53f 53f
2:30 6 8 mph 1020.7mb 53f 53f
2:24 7 9 mph 1020.7mb 53f 53f
2:18 7 9 mph 1020.7mb 53f 53f
2:12 7 8 mph 1020.7mb 53f 53f
2:06 7
mph
1020.7mb 53f 53f
2:00 7 8 mph 1020.7mb 54f 53f
1:54 8
mph
1020.7mb 54f 53f
1:48 8 9 mph 1020.7mb 55f 53f
1:24  -  mph 1020.8mb 55f 53f
1:18  -  mph 1020.8mb 55f 53f
1:12  -  mph 1020.9mb 55f 53f
1:06  -  mph 1021mb 55f 53f
1:00  -  mph 1021mb 55f 53f
12:54  -  mph 1020.9mb 55f 53f
12:48  -  mph 1021.1mb 55f 52f
12:30  -  mph 1021mb 55f 52f
12:24  -  mph 1021mb 54f 52f
12:18  -  mph 1021mb 54f 52f
12:12  -  mph 1021mb 54f 53f
12:06  -  mph 1021mb 54f 52f
12:00  -  mph 1021mb 54f 52f
11:54  -  mph 1021.1mb 54f 53f
11:48  -  mph 1021.1mb 54f 53f
11:36 7 9 mph 1021mb 54f 52f
11:30 8 9 mph 1021mb 54f 52f
11:24 8 10 mph 1021mb 54f 52f
11:18 8 9 mph 1021mb 54f 52f
11:12 8 10 mph 1021mb 54f 52f
11:06 8 10 mph 1021mb 54f 52f
11:00 6 8 mph 1021.1mb 54f 52f
10:54 7 8 mph 1021mb 54f 53f
10:48 7 8 mph 1021mb 54f 52f
10:36 8 9 mph 1020.9mb 54f 52f
10:30 7 9 mph 1020.9mb 54f 52f
10:24 9 11 mph 1020.9mb 54f 52f
10:18 7 9 mph 1020.9mb 54f 52f
10:12 8 10 mph 1020.8mb 54f 52f
10:06 7 8 mph 1020.8mb 54f 52f
10:00 7 9 mph 1020.8mb 54f 52f
9:54 8 10 mph 1020.7mb 54f 52f
9:48 8 10 mph 1020.8mb 54f 52f
9:36 8 9 mph 1020.8mb 55f 52f
9:30 9 10 mph 1020.9mb 55f 52f
9:24 8 9 mph 1020.9mb 55f 52f
9:18 7 10 mph 1020.9mb 55f 52f
9:12 8 10 mph 1020.9mb 55f 52f
9:06 7
mph
1020.8mb 55f 52f
9:00 7 10 mph 1020.8mb 55f 52f
8:54 9 11 mph 1020.8mb 54f 52f
8:48 9 13 mph 1020.8mb 54f 52f
8:36 8 10 mph 1020.8mb 54f 52f
8:30 8 11 mph 1020.7mb 54f 52f
8:24 8 10 mph 1020.8mb 54f 52f
8:18 8 10 mph 1020.7mb 54f 52f
8:12 10 11 mph 1020.7mb 54f 52f
8:06 8 10 mph 1020.7mb 54f 52f
8:00 10 11 mph 1020.8mb 54f 52f
7:54 8 10 mph 1020.8mb 54f 52f
7:48 11 13 mph - - -
7:36 9 13 mph 1020.7mb 54f 52f
7:30 8 9 mph 1020.6mb 54f 52f
7:24 7 9 mph 1020.6mb 54f 52f
7:18 9 10 mph 1020.7mb 54f 52f
7:12 9 11 mph 1020.6mb 54f 52f
7:06 8 10 mph 1020.6mb 54f 52f
7:00 9 10 mph 1020.6mb 54f 52f
6:54 6 8 mph 1020.6mb 54f 52f
6:48 6 7 mph 1020.5mb 54f 52f
6:36 6 8 mph 1020.5mb 54f 52f
6:30 7 9 mph 1020.4mb 53f 52f
6:24 7 9 mph 1020.4mb 53f 52f
6:18 7 9 mph 1020.5mb 53f 52f
6:12 9 11 mph 1020.4mb 53f 52f
6:06 10 14 mph 1020.3mb 53f 52f
6:00 9 13 mph 1020.3mb 53f 52f
5:54 10 11 mph 1020.3mb 53f 52f
5:48 8 9 mph 1020.3mb 53f 52f
5:36 10 11 mph 1020.1mb 53f 51f
5:30 9 10 mph 1020.1mb 53f 51f
5:24 9 11 mph 1020.1mb 53f 51f
5:18 11 14 mph 1020.1mb 53f 51f
5:12 10 13 mph 1020.2mb 52f 51f
5:06 9 10 mph 1020.2mb 52f 51f
5:00 9 11 mph 1020.1mb 52f 51f
4:54 10 11 mph 1020.1mb 52f 51f
4:48 10 11 mph 1020.1mb 53f 51f
4:36 11 13 mph 1020mb 53f 51f
4:30 11 13 mph 1020mb 52f 52f
4:24 9 11 mph 1020.1mb 53f 51f
4:18 7 9 mph 1020.1mb 53f 52f
4:12 9 13 mph 1020mb 52f 52f
4:06 9 11 mph 1020mb 52f 52f
4:00 10 11 mph 1020mb 52f 52f
3:54 11 13 mph 1020mb 52f 52f
3:48 11 14 mph 1019.9mb 52f 52f
3:36 11 13 mph 1019.8mb 53f 52f
3:30 11 13 mph 1019.8mb 53f 52f
3:24 9 11 mph 1019.9mb 53f 52f
3:18 10 13 mph 1019.9mb 53f 52f
3:12 8 14 mph 1019.9mb 53f 52f
3:06 13 14 mph 1020mb 53f 52f
3:00 10 13 mph 1020.1mb 53f 52f
2:54 11 14 mph 1020.2mb 53f 52f
2:48 10 13 mph 1020.1mb 52f 52f
2:36 9 13 mph 1020.2mb 52f 52f
2:30 9 11 mph 1020.1mb 52f 52f
2:24 10 13 mph 1020.1mb 52f 52f
2:18 10 13 mph 1020.1mb 52f 52f
2:12 10
mph
1020.1mb 52f 52f
2:06 9 13 mph 1020.2mb 52f 52f
2:00 11 13 mph 1020.2mb 52f 52f
1:54 10 11 mph 1020.2mb 52f 52f
1:48 8 9 mph 1020.2mb 52f 52f
1:36 10 11 mph 1020.2mb 52f 52f
1:30 9 11 mph 1020.1mb 52f 52f
1:24 10 13 mph 1020.1mb 53f 52f
1:18 11 13 mph 1020mb 53f 52f
1:12 11 14 mph 1020.1mb 53f 52f
1:06 11 14 mph 1020.1mb 53f 52f
1:00 11 13 mph 1020mb 53f 52f
12:54 10 13 mph 1020mb 53f 53f
12:48 10 14 mph 1020mb 53f 53f
12:36 11 15 mph 1020mb 53f 53f
12:30 10 11 mph 1020.1mb 53f 53f
12:24 10 13 mph 1020.1mb 54f 53f
12:18 11 14 mph 1020.1mb 55f 53f
12:12 10 13 mph 1020.2mb 55f 53f
12:06 9 14 mph 1020.1mb 55f 53f
12:00 10 11 mph 1020.1mb 55f 53f
Seg 05/18 11:54 11 13 mph 1020.3mb 55f 53f
11:48 11 13 mph 1020.2mb 55f 53f
11:36 8 10 mph 1020.1mb 55f 53f
11:30 11 13 mph 1020.1mb 55f 53f
11:24 10 13 mph 1020mb 55f 53f
11:18 11 16 mph 1020.1mb 55f 53f
11:12 11 14 mph 1020.1mb 55f 53f
11:06 10 13 mph 1020.1mb 55f 53f
11:00 8 9 mph 1020.1mb 55f 53f
10:54 8 10 mph 1020.2mb 55f 53f
10:48 9 13 mph 1020.1mb 55f 53f
10:36 10 11 mph 1020mb 55f 53f
10:30 13 16 mph 1020mb 55f 53f
10:24 10 13 mph 1020mb 55f 53f
10:18 10 13 mph 1020mb 55f 53f
10:12 11 14 mph 1019.9mb 55f 53f
10:06 11 13 mph 1019.9mb 55f 53f
10:00 13 15 mph 1019.9mb 55f 53f
9:54 13 16 mph 1019.8mb 55f 53f
9:48 11 16 mph 1019.8mb 55f 53f
9:36 13 15 mph 1019.6mb 55f 53f
9:30 15 17 mph 1019.4mb 55f 53f
9:24 14 16 mph 1019.4mb 55f 53f
9:18 13 15 mph 1019.5mb 54f 53f
9:12 11 13 mph 1019.5mb 55f 53f
9:06 14 16 mph 1019.5mb 55f 53f
9:00 9 10 mph 1019.5mb 55f 53f
8:54 9 10 mph 1019.7mb 55f 53f
8:48 7 11 mph 1019.7mb 55f 53f
8:36 11 14 mph 1019.5mb 55f 53f
8:30 14 15 mph 1019.5mb 55f 53f
8:24 11 14 mph 1019.5mb 55f 53f
8:18 10 13 mph 1019.5mb 55f 53f
8:12 13 15 mph 1019.5mb 55f 54f
8:06 14 17 mph 1019.5mb 55f 54f
8:00 15 16 mph 1019.5mb 55f 54f
7:54 14 18 mph 1019.5mb 55f 54f
7:48 15 17 mph 1019.4mb 55f 54f
7:36 14 15 mph 1019.3mb 55f 54f
7:30 14 15 mph 1019.3mb 55f 54f
7:24 14 15 mph 1019.3mb 55f 54f
7:18 14 16 mph 1019.3mb 55f 54f
7:12 15 16 mph 1019.2mb 55f 54f
7:06 14 16 mph 1019.2mb 54f 54f
7:00 13 17 mph 1019.2mb 54f 54f
6:54 15 17 mph 1019.2mb 55f 54f
6:48 15 17 mph 1019.2mb 55f 54f
6:36 15 17 mph 1019.1mb 55f 54f
6:30 15 17 mph 1019mb 55f 54f
6:24 15 18 mph 1019mb 55f 54f
6:18 16 18 mph 1019mb 55f 54f
6:12 16 17 mph 1019mb 55f 54f
6:06 16 20 mph 1019.1mb 55f 55f
6:00 17 18 mph 1019.2mb 54f 55f
5:54 15 18 mph 1019.3mb 54f 55f
5:48 14 16 mph 1019.4mb 54f 55f
5:36 16 17 mph 1019.4mb 54f 55f
5:30 15 18 mph 1019.4mb 54f 55f
5:24 17 21 mph 1019.3mb 54f 55f
5:18 16 20 mph 1019.3mb 54f 55f
5:12 15 18 mph 1019.4mb 54f 55f
5:06 17 21 mph 1019.4mb 54f 55f
5:00 16 22 mph 1019.4mb 54f 55f
4:54 18 22 mph 1019.4mb 54f 55f
4:48 17 20 mph 1019.3mb 54f 55f
4:36 17 20 mph 1019.2mb 54f 55f
4:30 16 21 mph 1019.2mb 53f 55f
4:24 17 21 mph 1019.2mb 53f 55f
4:18 18 21 mph 1019.1mb 53f 55f
4:12 15 20 mph 1019.1mb 53f 55f
4:06 16 18 mph 1019.1mb 53f 55f
4:00 15 18 mph 1019mb 53f 55f
3:54 15 16 mph 1019.1mb 53f 55f
3:48 16 18 mph 1019mb 53f 55f
3:36 15 17 mph 1019.1mb 53f 56f
3:30 15 16 mph 1019.2mb 53f 56f
3:24 15 16 mph 1019.1mb 53f 55f
3:18 14 18 mph 1019.2mb 53f 56f
3:12 14 17 mph 1019.3mb 53f 56f
3:06 15 17 mph 1019.3mb 53f 55f
3:00 14 15 mph 1019.3mb 53f 56f
2:54 15 17 mph 1019.3mb 53f 56f
2:48 16 18 mph 1019.3mb 53f 56f
2:36 15 18 mph 1019.4mb 53f 55f
2:30 14 16 mph 1019.5mb 53f 55f
2:24 13 16 mph 1019.4mb 53f 55f
2:18 14 16 mph 1019.4mb 53f 55f
2:12 15 16 mph 1019.4mb 53f 56f
2:06 15 17 mph 1019.3mb 53f 56f
2:00 14 17 mph 1019.2mb 53f 56f
1:54 15 17 mph 1019.2mb 53f 56f